Maxie, Mississippi
Current Conditions -  °F | °C
As of 11:53 AM on Thursday 30 Oct 2014 (Local Time) from KHBG Reporting Station
Clear Clear  
Wind Chill: 70°   Ceiling: Unl
Heat Index: 70°   Visibility: 10mi
Dew Point: 37°   Wind: 16mph
Humidity: 30%   Direction: 10°N
Pressure: 30.13"   Gusts: 21mph
Location:  30.9811°N, 89.2354°W
Report Text: KHBG 301653Z AUTO 01014G18KT 10SM CLR 21/03 A3013 RMK AO2 SLP202 T02110028
Loading
Personal Weather Stations






























Interactive Weather Map
Tropical Storm Tracking
New forecast layout! Learn more

10-Day Weather Forecast

Advertisements
Track Severe Weather on mobile